sensor_id;sensor_type;location;lat;lon;timestamp;temperature;humidity
41447;DHT22;27185;52.040;4.490;2023-12-20T00:00:37;9.80;99.90
41447;DHT22;27185;52.040;4.490;2023-12-20T00:03:23;9.80;99.90
41447;DHT22;27185;52.040;4.490;2023-12-20T00:06:09;9.80;99.90
41447;DHT22;27185;52.040;4.490;2023-12-20T00:08:55;9.80;99.90
41447;DHT22;27185;52.040;4.490;2023-12-20T00:11:47;9.80;99.90
41447;DHT22;27185;52.040;4.490;2023-12-20T00:14:32;9.90;99.90
41447;DHT22;27185;52.040;4.490;2023-12-20T00:17:18;9.90;99.90
41447;DHT22;27185;52.040;4.490;2023-12-20T00:20:04;9.90;99.90
41447;DHT22;27185;52.040;4.490;2023-12-20T00:22:50;9.90;99.90
41447;DHT22;27185;52.040;4.490;2023-12-20T00:25:36;10.00;99.90
41447;DHT22;27185;52.040;4.490;2023-12-20T00:28:22;10.00;99.90
41447;DHT22;27185;52.040;4.490;2023-12-20T00:31:08;10.10;99.90
41447;DHT22;27185;52.040;4.490;2023-12-20T00:33:53;10.10;99.90
41447;DHT22;27185;52.040;4.490;2023-12-20T00:36:40;10.10;99.90
41447;DHT22;27185;52.040;4.490;2023-12-20T00:39:25;10.10;99.90
41447;DHT22;27185;52.040;4.490;2023-12-20T00:42:11;10.10;99.90
41447;DHT22;27185;52.040;4.490;2023-12-20T00:44:57;10.20;99.90
41447;DHT22;27185;52.040;4.490;2023-12-20T00:47:43;10.20;99.90
41447;DHT22;27185;52.040;4.490;2023-12-20T00:50:28;10.20;99.90
41447;DHT22;27185;52.040;4.490;2023-12-20T00:53:14;10.20;99.90
41447;DHT22;27185;52.040;4.490;2023-12-20T00:55:59;10.10;99.90
41447;DHT22;27185;52.040;4.490;2023-12-20T00:58:57;10.10;99.90
41447;DHT22;27185;52.040;4.490;2023-12-20T01:01:42;10.00;99.90
41447;DHT22;27185;52.040;4.490;2023-12-20T01:04:28;10.10;99.90
41447;DHT22;27185;52.040;4.490;2023-12-20T01:07:14;10.10;99.90
41447;DHT22;27185;52.040;4.490;2023-12-20T01:09:59;10.10;99.90
41447;DHT22;27185;52.040;4.490;2023-12-20T01:12:45;10.10;99.90
41447;DHT22;27185;52.040;4.490;2023-12-20T01:15:30;10.10;99.90
41447;DHT22;27185;52.040;4.490;2023-12-20T01:18:16;10.10;99.90
41447;DHT22;27185;52.040;4.490;2023-12-20T01:21:02;10.10;99.90
41447;DHT22;27185;52.040;4.490;2023-12-20T01:23:48;10.10;99.90
41447;DHT22;27185;52.040;4.490;2023-12-20T01:26:37;10.10;99.90
41447;DHT22;27185;52.040;4.490;2023-12-20T01:29:22;10.10;99.90
41447;DHT22;27185;52.040;4.490;2023-12-20T01:32:08;10.20;99.90
41447;DHT22;27185;52.040;4.490;2023-12-20T01:34:53;10.20;99.90
41447;DHT22;27185;52.040;4.490;2023-12-20T01:37:39;10.20;99.90
41447;DHT22;27185;52.040;4.490;2023-12-20T01:40:25;10.20;99.90
41447;DHT22;27185;52.040;4.490;2023-12-20T01:43:10;10.20;99.90
41447;DHT22;27185;52.040;4.490;2023-12-20T01:45:58;10.20;99.90
41447;DHT22;27185;52.040;4.490;2023-12-20T01:48:44;10.30;99.90
41447;DHT22;27185;52.040;4.490;2023-12-20T01:51:32;10.30;99.90
41447;DHT22;27185;52.040;4.490;2023-12-20T01:54:19;10.30;99.90
41447;DHT22;27185;52.040;4.490;2023-12-20T01:57:06;10.30;99.90
41447;DHT22;27185;52.040;4.490;2023-12-20T01:59:52;10.40;99.90
41447;DHT22;27185;52.040;4.490;2023-12-20T02:02:39;10.40;99.90
41447;DHT22;27185;52.040;4.490;2023-12-20T02:05:26;10.40;99.90
41447;DHT22;27185;52.040;4.490;2023-12-20T02:08:13;10.40;99.90
41447;DHT22;27185;52.040;4.490;2023-12-20T02:10:59;10.40;99.90
41447;DHT22;27185;52.040;4.490;2023-12-20T02:13:49;10.40;99.90
41447;DHT22;27185;52.040;4.490;2023-12-20T02:16:34;10.40;99.90
41447;DHT22;27185;52.040;4.490;2023-12-20T02:19:20;10.40;99.90
41447;DHT22;27185;52.040;4.490;2023-12-20T02:22:08;10.40;99.90
41447;DHT22;27185;52.040;4.490;2023-12-20T02:24:54;10.40;99.90
41447;DHT22;27185;52.040;4.490;2023-12-20T02:27:42;10.40;99.90
41447;DHT22;27185;52.040;4.490;2023-12-20T02:30:28;10.30;99.90
41447;DHT22;27185;52.040;4.490;2023-12-20T02:33:14;10.30;99.90
41447;DHT22;27185;52.040;4.490;2023-12-20T02:36:02;10.30;99.90
41447;DHT22;27185;52.040;4.490;2023-12-20T02:38:47;10.20;99.90
41447;DHT22;27185;52.040;4.490;2023-12-20T02:41:33;10.20;99.90
41447;DHT22;27185;52.040;4.490;2023-12-20T02:44:31;10.20;99.90
41447;DHT22;27185;52.040;4.490;2023-12-20T02:47:16;10.20;99.90
41447;DHT22;27185;52.040;4.490;2023-12-20T02:50:02;10.20;99.90
41447;DHT22;27185;52.040;4.490;2023-12-20T02:52:48;10.20;99.90
41447;DHT22;27185;52.040;4.490;2023-12-20T02:55:33;10.20;99.90
41447;DHT22;27185;52.040;4.490;2023-12-20T02:58:19;10.20;99.90
41447;DHT22;27185;52.040;4.490;2023-12-20T03:01:05;10.20;99.90
41447;DHT22;27185;52.040;4.490;2023-12-20T03:03:50;10.20;99.90
41447;DHT22;27185;52.040;4.490;2023-12-20T03:06:36;10.20;99.90
41447;DHT22;27185;52.040;4.490;2023-12-20T03:09:23;10.20;99.90
41447;DHT22;27185;52.040;4.490;2023-12-20T03:12:09;10.20;99.90
41447;DHT22;27185;52.040;4.490;2023-12-20T03:14:54;10.20;99.90
41447;DHT22;27185;52.040;4.490;2023-12-20T03:17:40;10.20;99.90
41447;DHT22;27185;52.040;4.490;2023-12-20T03:20:26;10.20;99.90
41447;DHT22;27185;52.040;4.490;2023-12-20T03:23:13;10.20;99.90
41447;DHT22;27185;52.040;4.490;2023-12-20T03:25:59;10.20;99.90
41447;DHT22;27185;52.040;4.490;2023-12-20T03:28:45;10.20;99.90
41447;DHT22;27185;52.040;4.490;2023-12-20T03:31:31;10.20;99.90
41447;DHT22;27185;52.040;4.490;2023-12-20T03:34:16;10.20;99.90
41447;DHT22;27185;52.040;4.490;2023-12-20T03:37:02;10.20;99.90
41447;DHT22;27185;52.040;4.490;2023-12-20T03:39:48;10.20;99.90
41447;DHT22;27185;52.040;4.490;2023-12-20T03:42:34;10.30;99.90
41447;DHT22;27185;52.040;4.490;2023-12-20T03:45:20;10.30;99.90
41447;DHT22;27185;52.040;4.490;2023-12-20T03:48:06;10.30;99.90
41447;DHT22;27185;52.040;4.490;2023-12-20T03:50:51;10.20;99.90
41447;DHT22;27185;52.040;4.490;2023-12-20T03:53:37;10.20;99.90
41447;DHT22;27185;52.040;4.490;2023-12-20T03:56:23;10.20;99.90
41447;DHT22;27185;52.040;4.490;2023-12-20T03:59:08;10.10;99.90
41447;DHT22;27185;52.040;4.490;2023-12-20T04:01:55;10.10;99.90
41447;DHT22;27185;52.040;4.490;2023-12-20T04:04:41;10.10;99.90
41447;DHT22;27185;52.040;4.490;2023-12-20T04:07:27;10.10;99.90
41447;DHT22;27185;52.040;4.490;2023-12-20T04:10:13;10.10;99.90
41447;DHT22;27185;52.040;4.490;2023-12-20T04:12:58;10.10;99.90
41447;DHT22;27185;52.040;4.490;2023-12-20T04:15:44;10.00;99.90
41447;DHT22;27185;52.040;4.490;2023-12-20T04:18:30;10.10;99.90
41447;DHT22;27185;52.040;4.490;2023-12-20T04:21:17;10.10;99.90
41447;DHT22;27185;52.040;4.490;2023-12-20T04:24:03;10.10;99.90
41447;DHT22;27185;52.040;4.490;2023-12-20T04:26:57;10.00;99.90
41447;DHT22;27185;52.040;4.490;2023-12-20T04:29:43;10.10;99.90
41447;DHT22;27185;52.040;4.490;2023-12-20T04:32:28;10.00;99.90
41447;DHT22;27185;52.040;4.490;2023-12-20T04:35:14;10.10;99.90
41447;DHT22;27185;52.040;4.490;2023-12-20T04:38:22;10.00;99.90
41447;DHT22;27185;52.040;4.490;2023-12-20T04:41:07;10.00;99.90
41447;DHT22;27185;52.040;4.490;2023-12-20T04:43:53;10.00;99.90
41447;DHT22;27185;52.040;4.490;2023-12-20T04:46:39;10.00;99.90
41447;DHT22;27185;52.040;4.490;2023-12-20T04:49:25;9.90;99.90
41447;DHT22;27185;52.040;4.490;2023-12-20T04:52:10;9.90;99.90
41447;DHT22;27185;52.040;4.490;2023-12-20T04:54:56;9.90;99.90
41447;DHT22;27185;52.040;4.490;2023-12-20T04:57:42;9.90;99.90
41447;DHT22;27185;52.040;4.490;2023-12-20T05:00:34;9.90;99.90
41447;DHT22;27185;52.040;4.490;2023-12-20T05:03:20;10.00;99.90
41447;DHT22;27185;52.040;4.490;2023-12-20T05:06:06;10.00;99.90
41447;DHT22;27185;52.040;4.490;2023-12-20T05:08:51;10.00;99.90
41447;DHT22;27185;52.040;4.490;2023-12-20T05:11:37;10.00;99.90
41447;DHT22;27185;52.040;4.490;2023-12-20T05:14:22;10.00;99.90
41447;DHT22;27185;52.040;4.490;2023-12-20T05:17:08;10.00;99.90
41447;DHT22;27185;52.040;4.490;2023-12-20T05:19:54;9.90;99.90
41447;DHT22;27185;52.040;4.490;2023-12-20T05:22:41;9.90;99.90
41447;DHT22;27185;52.040;4.490;2023-12-20T05:25:26;9.90;99.90
41447;DHT22;27185;52.040;4.490;2023-12-20T05:28:12;9.90;99.90
41447;DHT22;27185;52.040;4.490;2023-12-20T05:30:58;9.90;99.90
41447;DHT22;27185;52.040;4.490;2023-12-20T05:33:44;9.90;99.90
41447;DHT22;27185;52.040;4.490;2023-12-20T05:36:29;10.00;99.90
41447;DHT22;27185;52.040;4.490;2023-12-20T05:39:17;10.00;99.90
41447;DHT22;27185;52.040;4.490;2023-12-20T05:42:03;10.10;99.90
41447;DHT22;27185;52.040;4.490;2023-12-20T05:44:49;10.10;99.90
41447;DHT22;27185;52.040;4.490;2023-12-20T05:47:34;10.10;99.90
41447;DHT22;27185;52.040;4.490;2023-12-20T05:50:20;10.20;99.90
41447;DHT22;27185;52.040;4.490;2023-12-20T05:53:06;10.20;99.90
41447;DHT22;27185;52.040;4.490;2023-12-20T05:55:52;10.20;99.90
41447;DHT22;27185;52.040;4.490;2023-12-20T05:58:43;10.20;99.90
41447;DHT22;27185;52.040;4.490;2023-12-20T06:01:30;10.30;99.90
41447;DHT22;27185;52.040;4.490;2023-12-20T06:04:16;10.30;99.90
41447;DHT22;27185;52.040;4.490;2023-12-20T06:07:02;10.30;99.90
41447;DHT22;27185;52.040;4.490;2023-12-20T06:09:48;10.30;99.90
41447;DHT22;27185;52.040;4.490;2023-12-20T06:12:34;10.40;99.90
41447;DHT22;27185;52.040;4.490;2023-12-20T06:15:24;10.40;99.90
41447;DHT22;27185;52.040;4.490;2023-12-20T06:18:10;10.40;99.90
41447;DHT22;27185;52.040;4.490;2023-12-20T06:20:55;10.40;99.90
41447;DHT22;27185;52.040;4.490;2023-12-20T06:23:41;10.40;99.90
41447;DHT22;27185;52.040;4.490;2023-12-20T06:26:27;10.50;99.90
41447;DHT22;27185;52.040;4.490;2023-12-20T06:29:13;10.40;99.90
41447;DHT22;27185;52.040;4.490;2023-12-20T06:31:58;10.40;99.90
41447;DHT22;27185;52.040;4.490;2023-12-20T06:34:44;10.50;99.90
41447;DHT22;27185;52.040;4.490;2023-12-20T06:37:30;10.50;99.90
41447;DHT22;27185;52.040;4.490;2023-12-20T06:40:16;10.50;99.90
41447;DHT22;27185;52.040;4.490;2023-12-20T06:43:01;10.50;99.90
41447;DHT22;27185;52.040;4.490;2023-12-20T06:45:47;10.50;99.90
41447;DHT22;27185;52.040;4.490;2023-12-20T06:48:33;10.60;99.90
41447;DHT22;27185;52.040;4.490;2023-12-20T06:51:18;10.60;99.90
41447;DHT22;27185;52.040;4.490;2023-12-20T06:54:05;10.60;99.90
41447;DHT22;27185;52.040;4.490;2023-12-20T06:56:51;10.60;99.90
41447;DHT22;27185;52.040;4.490;2023-12-20T06:59:40;10.50;99.90
41447;DHT22;27185;52.040;4.490;2023-12-20T07:02:27;10.50;99.90
41447;DHT22;27185;52.040;4.490;2023-12-20T07:05:18;10.50;99.90
41447;DHT22;27185;52.040;4.490;2023-12-20T07:08:05;10.50;99.90
41447;DHT22;27185;52.040;4.490;2023-12-20T07:10:52;10.40;99.90
41447;DHT22;27185;52.040;4.490;2023-12-20T07:13:38;10.40;99.90
41447;DHT22;27185;52.040;4.490;2023-12-20T07:16:23;10.40;99.90
41447;DHT22;27185;52.040;4.490;2023-12-20T07:19:10;10.40;99.90
41447;DHT22;27185;52.040;4.490;2023-12-20T07:21:55;10.30;99.90
41447;DHT22;27185;52.040;4.490;2023-12-20T07:25:01;10.30;99.90
41447;DHT22;27185;52.040;4.490;2023-12-20T07:27:52;10.30;99.90
41447;DHT22;27185;52.040;4.490;2023-12-20T07:30:39;10.20;99.90
41447;DHT22;27185;52.040;4.490;2023-12-20T07:33:28;10.20;99.90
41447;DHT22;27185;52.040;4.490;2023-12-20T07:36:15;10.10;99.90
41447;DHT22;27185;52.040;4.490;2023-12-20T07:39:01;10.20;99.90
41447;DHT22;27185;52.040;4.490;2023-12-20T07:41:47;10.20;99.90
41447;DHT22;27185;52.040;4.490;2023-12-20T07:44:33;10.10;99.90
41447;DHT22;27185;52.040;4.490;2023-12-20T07:47:18;10.20;99.90
41447;DHT22;27185;52.040;4.490;2023-12-20T07:50:14;10.20;99.90
41447;DHT22;27185;52.040;4.490;2023-12-20T07:53:05;10.20;99.90
41447;DHT22;27185;52.040;4.490;2023-12-20T07:55:51;10.20;99.90
41447;DHT22;27185;52.040;4.490;2023-12-20T07:58:37;10.20;99.90
41447;DHT22;27185;52.040;4.490;2023-12-20T08:01:23;10.20;99.90
41447;DHT22;27185;52.040;4.490;2023-12-20T08:04:09;10.20;99.90
41447;DHT22;27185;52.040;4.490;2023-12-20T08:06:55;10.20;99.90
41447;DHT22;27185;52.040;4.490;2023-12-20T08:09:40;10.30;99.90
41447;DHT22;27185;52.040;4.490;2023-12-20T08:12:26;10.30;99.90
41447;DHT22;27185;52.040;4.490;2023-12-20T08:15:13;10.40;99.90
41447;DHT22;27185;52.040;4.490;2023-12-20T08:17:59;10.40;99.90
41447;DHT22;27185;52.040;4.490;2023-12-20T08:20:45;10.50;99.90
41447;DHT22;27185;52.040;4.490;2023-12-20T08:23:31;10.50;99.90
41447;DHT22;27185;52.040;4.490;2023-12-20T08:26:29;10.60;99.90
41447;DHT22;27185;52.040;4.490;2023-12-20T08:29:14;10.60;99.90
41447;DHT22;27185;52.040;4.490;2023-12-20T08:32:01;10.60;99.90
41447;DHT22;27185;52.040;4.490;2023-12-20T08:34:47;10.60;99.90
41447;DHT22;27185;52.040;4.490;2023-12-20T08:37:32;10.70;99.90
41447;DHT22;27185;52.040;4.490;2023-12-20T08:40:23;10.70;99.90
41447;DHT22;27185;52.040;4.490;2023-12-20T08:43:09;10.70;99.90
41447;DHT22;27185;52.040;4.490;2023-12-20T08:45:55;10.70;99.90
41447;DHT22;27185;52.040;4.490;2023-12-20T08:48:40;10.70;99.90
41447;DHT22;27185;52.040;4.490;2023-12-20T08:51:45;10.70;99.90
41447;DHT22;27185;52.040;4.490;2023-12-20T08:54:30;10.80;99.90
41447;DHT22;27185;52.040;4.490;2023-12-20T08:57:18;10.90;99.90
41447;DHT22;27185;52.040;4.490;2023-12-20T09:00:04;11.00;99.90
41447;DHT22;27185;52.040;4.490;2023-12-20T09:02:52;11.00;99.90
41447;DHT22;27185;52.040;4.490;2023-12-20T09:05:38;11.10;99.90
41447;DHT22;27185;52.040;4.490;2023-12-20T09:08:29;11.10;99.90
41447;DHT22;27185;52.040;4.490;2023-12-20T09:11:14;11.20;99.90
41447;DHT22;27185;52.040;4.490;2023-12-20T09:14:00;11.20;99.90
41447;DHT22;27185;52.040;4.490;2023-12-20T09:16:55;11.20;99.90
41447;DHT22;27185;52.040;4.490;2023-12-20T09:19:41;11.20;99.90
41447;DHT22;27185;52.040;4.490;2023-12-20T09:22:28;11.30;99.90
41447;DHT22;27185;52.040;4.490;2023-12-20T09:25:14;11.30;99.90
41447;DHT22;27185;52.040;4.490;2023-12-20T09:28:01;11.40;99.90
41447;DHT22;27185;52.040;4.490;2023-12-20T09:30:47;11.40;99.90
41447;DHT22;27185;52.040;4.490;2023-12-20T09:33:33;11.40;99.90
41447;DHT22;27185;52.040;4.490;2023-12-20T09:36:19;11.50;99.90
41447;DHT22;27185;52.040;4.490;2023-12-20T09:39:05;11.50;99.90
41447;DHT22;27185;52.040;4.490;2023-12-20T09:42:01;11.50;99.90
41447;DHT22;27185;52.040;4.490;2023-12-20T09:44:47;11.50;99.90
41447;DHT22;27185;52.040;4.490;2023-12-20T09:47:33;11.50;99.90
41447;DHT22;27185;52.040;4.490;2023-12-20T09:50:20;11.50;99.90
41447;DHT22;27185;52.040;4.490;2023-12-20T09:53:08;11.50;99.90
41447;DHT22;27185;52.040;4.490;2023-12-20T09:56:14;11.50;99.90
41447;DHT22;27185;52.040;4.490;2023-12-20T09:59:00;11.60;99.90
41447;DHT22;27185;52.040;4.490;2023-12-20T10:01:46;11.60;99.90
41447;DHT22;27185;52.040;4.490;2023-12-20T10:04:32;11.60;99.90
41447;DHT22;27185;52.040;4.490;2023-12-20T10:07:17;11.50;99.90
41447;DHT22;27185;52.040;4.490;2023-12-20T10:10:15;11.50;99.90
41447;DHT22;27185;52.040;4.490;2023-12-20T10:13:03;11.50;99.90
41447;DHT22;27185;52.040;4.490;2023-12-20T10:15:49;11.50;99.90
41447;DHT22;27185;52.040;4.490;2023-12-20T10:18:38;11.60;99.90
41447;DHT22;27185;52.040;4.490;2023-12-20T10:21:25;11.60;99.90
41447;DHT22;27185;52.040;4.490;2023-12-20T10:24:17;11.70;99.90
41447;DHT22;27185;52.040;4.490;2023-12-20T10:27:07;11.70;99.90
41447;DHT22;27185;52.040;4.490;2023-12-20T10:29:53;11.70;99.90
41447;DHT22;27185;52.040;4.490;2023-12-20T10:32:38;11.80;99.90
41447;DHT22;27185;52.040;4.490;2023-12-20T10:35:24;11.80;99.90
41447;DHT22;27185;52.040;4.490;2023-12-20T10:38:10;11.80;99.90
41447;DHT22;27185;52.040;4.490;2023-12-20T10:40:57;11.90;99.90
41447;DHT22;27185;52.040;4.490;2023-12-20T10:43:45;11.90;99.90
41447;DHT22;27185;52.040;4.490;2023-12-20T10:46:31;11.90;99.90
41447;DHT22;27185;52.040;4.490;2023-12-20T10:49:18;11.90;99.90
41447;DHT22;27185;52.040;4.490;2023-12-20T10:52:05;12.00;99.90
41447;DHT22;27185;52.040;4.490;2023-12-20T10:54:51;12.00;99.90
41447;DHT22;27185;52.040;4.490;2023-12-20T10:57:38;12.00;99.90
41447;DHT22;27185;52.040;4.490;2023-12-20T11:00:25;12.00;99.90
41447;DHT22;27185;52.040;4.490;2023-12-20T11:03:16;12.00;99.90
41447;DHT22;27185;52.040;4.490;2023-12-20T11:06:37;12.10;99.90
41447;DHT22;27185;52.040;4.490;2023-12-20T11:09:29;12.10;99.90
41447;DHT22;27185;52.040;4.490;2023-12-20T11:12:20;12.20;99.90
41447;DHT22;27185;52.040;4.490;2023-12-20T11:15:09;12.20;99.90
41447;DHT22;27185;52.040;4.490;2023-12-20T11:17:56;12.20;99.90
41447;DHT22;27185;52.040;4.490;2023-12-20T11:20:42;12.30;99.90
41447;DHT22;27185;52.040;4.490;2023-12-20T11:23:29;12.30;99.90
41447;DHT22;27185;52.040;4.490;2023-12-20T11:26:23;12.30;99.90
41447;DHT22;27185;52.040;4.490;2023-12-20T11:29:35;12.30;99.90
41447;DHT22;27185;52.040;4.490;2023-12-20T11:35:19;12.30;99.90
41447;DHT22;27185;52.040;4.490;2023-12-20T11:38:10;12.30;99.90
41447;DHT22;27185;52.040;4.490;2023-12-20T11:40:55;12.30;99.90
41447;DHT22;27185;52.040;4.490;2023-12-20T11:43:41;12.30;99.90
41447;DHT22;27185;52.040;4.490;2023-12-20T11:46:27;12.30;99.90
41447;DHT22;27185;52.040;4.490;2023-12-20T11:49:15;12.20;99.90
41447;DHT22;27185;52.040;4.490;2023-12-20T11:52:01;12.20;99.90
41447;DHT22;27185;52.040;4.490;2023-12-20T11:54:47;12.20;99.90
41447;DHT22;27185;52.040;4.490;2023-12-20T11:57:33;12.20;99.90
41447;DHT22;27185;52.040;4.490;2023-12-20T12:00:19;12.20;99.90
41447;DHT22;27185;52.040;4.490;2023-12-20T12:03:06;12.20;99.90
41447;DHT22;27185;52.040;4.490;2023-12-20T12:05:51;12.20;99.90
41447;DHT22;27185;52.040;4.490;2023-12-20T12:08:37;12.20;99.90
41447;DHT22;27185;52.040;4.490;2023-12-20T12:11:23;12.30;99.90
41447;DHT22;27185;52.040;4.490;2023-12-20T12:14:18;12.30;99.90
41447;DHT22;27185;52.040;4.490;2023-12-20T12:17:04;12.30;99.90
41447;DHT22;27185;52.040;4.490;2023-12-20T12:19:50;12.30;99.90
41447;DHT22;27185;52.040;4.490;2023-12-20T12:22:36;12.30;99.90
41447;DHT22;27185;52.040;4.490;2023-12-20T12:25:22;12.30;99.90
41447;DHT22;27185;52.040;4.490;2023-12-20T12:28:07;12.30;99.90
41447;DHT22;27185;52.040;4.490;2023-12-20T12:30:59;12.30;99.90
41447;DHT22;27185;52.040;4.490;2023-12-20T12:33:46;12.30;99.90
41447;DHT22;27185;52.040;4.490;2023-12-20T12:36:32;12.30;99.90
41447;DHT22;27185;52.040;4.490;2023-12-20T12:39:18;12.40;99.90
41447;DHT22;27185;52.040;4.490;2023-12-20T12:42:04;12.30;99.90
41447;DHT22;27185;52.040;4.490;2023-12-20T12:44:49;12.30;99.90
41447;DHT22;27185;52.040;4.490;2023-12-20T12:47:36;12.30;99.90
41447;DHT22;27185;52.040;4.490;2023-12-20T12:50:22;12.30;99.90
41447;DHT22;27185;52.040;4.490;2023-12-20T12:53:07;12.30;99.90
41447;DHT22;27185;52.040;4.490;2023-12-20T12:55:55;12.30;99.90
41447;DHT22;27185;52.040;4.490;2023-12-20T12:58:41;12.20;99.90
41447;DHT22;27185;52.040;4.490;2023-12-20T13:01:27;12.20;99.90
41447;DHT22;27185;52.040;4.490;2023-12-20T13:04:13;12.20;99.90
41447;DHT22;27185;52.040;4.490;2023-12-20T13:06:58;12.20;99.90
41447;DHT22;27185;52.040;4.490;2023-12-20T13:09:44;12.20;99.90
41447;DHT22;27185;52.040;4.490;2023-12-20T13:12:30;12.20;99.90
41447;DHT22;27185;52.040;4.490;2023-12-20T13:15:17;12.20;99.90
41447;DHT22;27185;52.040;4.490;2023-12-20T13:18:03;12.20;99.90
41447;DHT22;27185;52.040;4.490;2023-12-20T13:20:50;12.10;99.90
41447;DHT22;27185;52.040;4.490;2023-12-20T13:23:36;12.20;99.90
41447;DHT22;27185;52.040;4.490;2023-12-20T13:26:22;12.20;99.90
41447;DHT22;27185;52.040;4.490;2023-12-20T13:29:08;12.20;99.90
41447;DHT22;27185;52.040;4.490;2023-12-20T13:31:53;12.20;99.90
41447;DHT22;27185;52.040;4.490;2023-12-20T13:34:39;12.20;99.90
41447;DHT22;27185;52.040;4.490;2023-12-20T13:37:26;12.20;99.90
41447;DHT22;27185;52.040;4.490;2023-12-20T13:40:21;12.20;99.90
41447;DHT22;27185;52.040;4.490;2023-12-20T13:43:06;12.20;99.90
41447;DHT22;27185;52.040;4.490;2023-12-20T13:45:52;12.20;99.90
41447;DHT22;27185;52.040;4.490;2023-12-20T13:48:55;12.20;99.90
41447;DHT22;27185;52.040;4.490;2023-12-20T13:51:40;12.10;99.90
41447;DHT22;27185;52.040;4.490;2023-12-20T13:54:26;12.10;99.90
41447;DHT22;27185;52.040;4.490;2023-12-20T13:57:11;12.10;99.90
41447;DHT22;27185;52.040;4.490;2023-12-20T13:59:57;12.10;99.90
41447;DHT22;27185;52.040;4.490;2023-12-20T14:02:43;12.10;99.90
41447;DHT22;27185;52.040;4.490;2023-12-20T14:05:29;12.10;99.90
41447;DHT22;27185;52.040;4.490;2023-12-20T14:08:15;12.10;99.90
41447;DHT22;27185;52.040;4.490;2023-12-20T14:11:01;12.10;99.90
41447;DHT22;27185;52.040;4.490;2023-12-20T14:13:52;12.10;99.90
41447;DHT22;27185;52.040;4.490;2023-12-20T14:16:38;12.00;99.90
41447;DHT22;27185;52.040;4.490;2023-12-20T14:19:23;12.00;99.90
41447;DHT22;27185;52.040;4.490;2023-12-20T14:22:09;12.00;99.90
41447;DHT22;27185;52.040;4.490;2023-12-20T14:24:55;12.00;99.90
41447;DHT22;27185;52.040;4.490;2023-12-20T14:27:42;12.00;99.90
41447;DHT22;27185;52.040;4.490;2023-12-20T14:30:32;12.00;99.90
41447;DHT22;27185;52.040;4.490;2023-12-20T14:33:41;11.90;99.90
41447;DHT22;27185;52.040;4.490;2023-12-20T14:36:27;11.90;99.90
41447;DHT22;27185;52.040;4.490;2023-12-20T14:39:13;11.90;99.90
41447;DHT22;27185;52.040;4.490;2023-12-20T14:41:59;12.00;99.90
41447;DHT22;27185;52.040;4.490;2023-12-20T14:44:44;12.00;99.90
41447;DHT22;27185;52.040;4.490;2023-12-20T14:47:30;11.90;99.90
41447;DHT22;27185;52.040;4.490;2023-12-20T14:50:15;11.90;99.90
41447;DHT22;27185;52.040;4.490;2023-12-20T14:53:04;11.90;99.90
41447;DHT22;27185;52.040;4.490;2023-12-20T14:55:50;11.90;99.90
41447;DHT22;27185;52.040;4.490;2023-12-20T14:58:37;11.90;99.90
41447;DHT22;27185;52.040;4.490;2023-12-20T15:01:26;11.90;99.90
41447;DHT22;27185;52.040;4.490;2023-12-20T15:04:11;11.90;99.90
41447;DHT22;27185;52.040;4.490;2023-12-20T15:07:09;11.80;99.90
41447;DHT22;27185;52.040;4.490;2023-12-20T15:09:55;11.70;99.90
41447;DHT22;27185;52.040;4.490;2023-12-20T15:12:41;11.70;99.90
41447;DHT22;27185;52.040;4.490;2023-12-20T15:15:39;11.70;99.90
41447;DHT22;27185;52.040;4.490;2023-12-20T15:18:26;11.60;99.90
41447;DHT22;27185;52.040;4.490;2023-12-20T15:21:15;11.60;99.90
41447;DHT22;27185;52.040;4.490;2023-12-20T15:24:01;11.60;99.90
41447;DHT22;27185;52.040;4.490;2023-12-20T15:27:17;11.50;99.90
41447;DHT22;27185;52.040;4.490;2023-12-20T15:30:07;11.50;99.90
41447;DHT22;27185;52.040;4.490;2023-12-20T15:32:54;11.50;99.90
41447;DHT22;27185;52.040;4.490;2023-12-20T15:35:40;11.50;99.90
41447;DHT22;27185;52.040;4.490;2023-12-20T15:38:26;11.50;99.90
41447;DHT22;27185;52.040;4.490;2023-12-20T15:41:19;11.50;99.90
41447;DHT22;27185;52.040;4.490;2023-12-20T15:44:04;11.50;99.90
41447;DHT22;27185;52.040;4.490;2023-12-20T15:46:52;11.50;99.90
41447;DHT22;27185;52.040;4.490;2023-12-20T15:49:40;11.50;99.90
41447;DHT22;27185;52.040;4.490;2023-12-20T15:52:26;11.50;99.90
41447;DHT22;27185;52.040;4.490;2023-12-20T15:55:11;11.40;99.90
41447;DHT22;27185;52.040;4.490;2023-12-20T15:58:09;11.40;99.90
41447;DHT22;27185;52.040;4.490;2023-12-20T16:01:02;11.30;99.90
41447;DHT22;27185;52.040;4.490;2023-12-20T16:03:48;11.20;99.90
41447;DHT22;27185;52.040;4.490;2023-12-20T16:06:34;11.20;99.90
41447;DHT22;27185;52.040;4.490;2023-12-20T16:09:20;11.20;99.90
41447;DHT22;27185;52.040;4.490;2023-12-20T16:12:21;11.10;99.90
41447;DHT22;27185;52.040;4.490;2023-12-20T16:15:07;11.10;99.90
41447;DHT22;27185;52.040;4.490;2023-12-20T16:17:53;11.10;99.90
41447;DHT22;27185;52.040;4.490;2023-12-20T16:21:01;11.10;99.90
41447;DHT22;27185;52.040;4.490;2023-12-20T16:23:48;11.10;99.90
41447;DHT22;27185;52.040;4.490;2023-12-20T16:26:34;11.00;99.90
41447;DHT22;27185;52.040;4.490;2023-12-20T16:29:20;11.00;99.90
41447;DHT22;27185;52.040;4.490;2023-12-20T16:32:06;10.90;99.90
41447;DHT22;27185;52.040;4.490;2023-12-20T16:34:52;11.00;99.90
41447;DHT22;27185;52.040;4.490;2023-12-20T16:37:38;11.00;99.90
41447;DHT22;27185;52.040;4.490;2023-12-20T16:40:23;10.90;99.90
41447;DHT22;27185;52.040;4.490;2023-12-20T16:43:10;10.90;99.90
41447;DHT22;27185;52.040;4.490;2023-12-20T16:45:57;10.90;99.90
41447;DHT22;27185;52.040;4.490;2023-12-20T16:48:43;10.90;99.90
41447;DHT22;27185;52.040;4.490;2023-12-20T16:51:28;10.90;99.90
41447;DHT22;27185;52.040;4.490;2023-12-20T16:54:14;10.90;99.90
41447;DHT22;27185;52.040;4.490;2023-12-20T16:57:01;10.90;99.90
41447;DHT22;27185;52.040;4.490;2023-12-20T16:59:49;10.90;99.90
41447;DHT22;27185;52.040;4.490;2023-12-20T17:02:35;10.80;99.90
41447;DHT22;27185;52.040;4.490;2023-12-20T17:05:21;10.80;99.90
41447;DHT22;27185;52.040;4.490;2023-12-20T17:08:07;10.90;99.90
41447;DHT22;27185;52.040;4.490;2023-12-20T17:10:52;10.80;99.90
41447;DHT22;27185;52.040;4.490;2023-12-20T17:13:38;10.90;99.90
41447;DHT22;27185;52.040;4.490;2023-12-20T17:16:24;10.90;99.90
41447;DHT22;27185;52.040;4.490;2023-12-20T17:19:09;10.90;99.90
41447;DHT22;27185;52.040;4.490;2023-12-20T17:21:55;10.90;99.90
41447;DHT22;27185;52.040;4.490;2023-12-20T17:24:41;11.00;99.90
41447;DHT22;27185;52.040;4.490;2023-12-20T17:27:26;11.00;99.90
41447;DHT22;27185;52.040;4.490;2023-12-20T17:30:12;11.00;99.90
41447;DHT22;27185;52.040;4.490;2023-12-20T17:32:58;11.10;99.90
41447;DHT22;27185;52.040;4.490;2023-12-20T17:35:44;11.20;99.90
41447;DHT22;27185;52.040;4.490;2023-12-20T17:38:30;11.20;99.90
41447;DHT22;27185;52.040;4.490;2023-12-20T17:41:15;11.20;99.90